sensor_id;sensor_type;location;lat;lon;timestamp;P1;durP1;ratioP1;P2;durP2;ratioP2
15946;SDS011;8072;52.554;7.966;2022-12-11T00:02:19;112.97;;;29.90;;
15946;SDS011;8072;52.554;7.966;2022-12-11T00:04:45;120.07;;;30.57;;
15946;SDS011;8072;52.554;7.966;2022-12-11T00:07:10;109.37;;;28.77;;
15946;SDS011;8072;52.554;7.966;2022-12-11T00:09:36;131.27;;;29.60;;
15946;SDS011;8072;52.554;7.966;2022-12-11T00:12:02;114.43;;;30.50;;
15946;SDS011;8072;52.554;7.966;2022-12-11T00:14:29;124.37;;;30.63;;
15946;SDS011;8072;52.554;7.966;2022-12-11T00:16:56;123.83;;;29.30;;
15946;SDS011;8072;52.554;7.966;2022-12-11T00:19:21;114.63;;;28.60;;
15946;SDS011;8072;52.554;7.966;2022-12-11T00:21:47;129.17;;;30.53;;
15946;SDS011;8072;52.554;7.966;2022-12-11T00:24:13;126.67;;;30.37;;
15946;SDS011;8072;52.554;7.966;2022-12-11T00:26:40;108.67;;;28.10;;
15946;SDS011;8072;52.554;7.966;2022-12-11T00:29:06;117.03;;;27.63;;
15946;SDS011;8072;52.554;7.966;2022-12-11T00:31:38;104.93;;;27.33;;
15946;SDS011;8072;52.554;7.966;2022-12-11T00:34:05;107.50;;;26.73;;
15946;SDS011;8072;52.554;7.966;2022-12-11T00:36:31;95.97;;;24.80;;
15946;SDS011;8072;52.554;7.966;2022-12-11T00:38:56;109.10;;;26.67;;
15946;SDS011;8072;52.554;7.966;2022-12-11T00:41:22;105.73;;;25.27;;
15946;SDS011;8072;52.554;7.966;2022-12-11T00:43:48;103.67;;;25.63;;
15946;SDS011;8072;52.554;7.966;2022-12-11T00:46:14;96.50;;;24.13;;
15946;SDS011;8072;52.554;7.966;2022-12-11T00:48:40;101.13;;;26.07;;
15946;SDS011;8072;52.554;7.966;2022-12-11T00:51:06;98.13;;;24.93;;
15946;SDS011;8072;52.554;7.966;2022-12-11T00:53:32;92.10;;;24.30;;
15946;SDS011;8072;52.554;7.966;2022-12-11T00:55:58;98.33;;;24.17;;
15946;SDS011;8072;52.554;7.966;2022-12-11T00:58:24;95.77;;;24.10;;
15946;SDS011;8072;52.554;7.966;2022-12-11T01:00:50;94.03;;;23.63;;
15946;SDS011;8072;52.554;7.966;2022-12-11T01:03:17;83.90;;;22.67;;
15946;SDS011;8072;52.554;7.966;2022-12-11T01:05:54;86.63;;;22.73;;
15946;SDS011;8072;52.554;7.966;2022-12-11T01:08:20;76.90;;;20.77;;
15946;SDS011;8072;52.554;7.966;2022-12-11T01:10:46;88.07;;;22.30;;
15946;SDS011;8072;52.554;7.966;2022-12-11T01:13:11;72.57;;;20.17;;
15946;SDS011;8072;52.554;7.966;2022-12-11T01:15:39;81.73;;;20.73;;
15946;SDS011;8072;52.554;7.966;2022-12-11T01:18:06;75.47;;;20.77;;
15946;SDS011;8072;52.554;7.966;2022-12-11T01:20:32;70.70;;;20.37;;
15946;SDS011;8072;52.554;7.966;2022-12-11T01:22:59;79.87;;;21.63;;
15946;SDS011;8072;52.554;7.966;2022-12-11T01:25:25;69.07;;;19.93;;
15946;SDS011;8072;52.554;7.966;2022-12-11T01:27:52;79.87;;;21.07;;
15946;SDS011;8072;52.554;7.966;2022-12-11T01:30:20;84.67;;;20.47;;
15946;SDS011;8072;52.554;7.966;2022-12-11T01:32:47;64.07;;;18.57;;
15946;SDS011;8072;52.554;7.966;2022-12-11T01:35:13;73.23;;;18.87;;
15946;SDS011;8072;52.554;7.966;2022-12-11T01:37:39;73.77;;;19.33;;
15946;SDS011;8072;52.554;7.966;2022-12-11T01:40:06;73.47;;;18.77;;
15946;SDS011;8072;52.554;7.966;2022-12-11T01:42:32;70.67;;;19.37;;
15946;SDS011;8072;52.554;7.966;2022-12-11T01:47:49;63.83;;;17.23;;
15946;SDS011;8072;52.554;7.966;2022-12-11T01:50:27;71.03;;;18.90;;
15946;SDS011;8072;52.554;7.966;2022-12-11T01:52:54;55.97;;;17.33;;
15946;SDS011;8072;52.554;7.966;2022-12-11T01:55:20;64.23;;;19.33;;
15946;SDS011;8072;52.554;7.966;2022-12-11T01:57:47;71.70;;;19.20;;
15946;SDS011;8072;52.554;7.966;2022-12-11T02:00:15;68.47;;;18.50;;
15946;SDS011;8072;52.554;7.966;2022-12-11T02:02:41;58.70;;;18.70;;
15946;SDS011;8072;52.554;7.966;2022-12-11T02:05:07;74.33;;;19.30;;
15946;SDS011;8072;52.554;7.966;2022-12-11T02:07:36;68.27;;;18.07;;
15946;SDS011;8072;52.554;7.966;2022-12-11T02:10:06;77.53;;;20.17;;
15946;SDS011;8072;52.554;7.966;2022-12-11T02:15:24;72.10;;;20.50;;
15946;SDS011;8072;52.554;7.966;2022-12-11T02:20:34;69.47;;;18.23;;
15946;SDS011;8072;52.554;7.966;2022-12-11T02:31:14;71.03;;;18.87;;
15946;SDS011;8072;52.554;7.966;2022-12-11T02:36:44;75.00;;;18.00;;
15946;SDS011;8072;52.554;7.966;2022-12-11T02:39:15;64.53;;;16.97;;
15946;SDS011;8072;52.554;7.966;2022-12-11T02:41:45;73.17;;;19.57;;
15946;SDS011;8072;52.554;7.966;2022-12-11T02:44:14;55.73;;;16.47;;
15946;SDS011;8072;52.554;7.966;2022-12-11T02:46:43;57.43;;;16.10;;
15946;SDS011;8072;52.554;7.966;2022-12-11T02:49:09;59.30;;;17.00;;
15946;SDS011;8072;52.554;7.966;2022-12-11T02:51:38;64.63;;;17.77;;
15946;SDS011;8072;52.554;7.966;2022-12-11T02:54:07;59.17;;;15.93;;
15946;SDS011;8072;52.554;7.966;2022-12-11T02:56:50;57.43;;;16.87;;
15946;SDS011;8072;52.554;7.966;2022-12-11T02:59:39;54.50;;;16.53;;
15946;SDS011;8072;52.554;7.966;2022-12-11T03:02:06;55.43;;;16.17;;
15946;SDS011;8072;52.554;7.966;2022-12-11T03:04:33;54.10;;;16.67;;
15946;SDS011;8072;52.554;7.966;2022-12-11T03:07:01;58.60;;;15.80;;
15946;SDS011;8072;52.554;7.966;2022-12-11T03:09:40;54.23;;;15.43;;
15946;SDS011;8072;52.554;7.966;2022-12-11T03:12:07;51.37;;;14.63;;
15946;SDS011;8072;52.554;7.966;2022-12-11T03:14:36;47.30;;;15.03;;
15946;SDS011;8072;52.554;7.966;2022-12-11T03:17:11;58.83;;;16.70;;
15946;SDS011;8072;52.554;7.966;2022-12-11T03:19:54;40.50;;;13.57;;
15946;SDS011;8072;52.554;7.966;2022-12-11T03:22:45;49.27;;;13.40;;
15946;SDS011;8072;52.554;7.966;2022-12-11T03:25:14;47.60;;;13.63;;
15946;SDS011;8072;52.554;7.966;2022-12-11T03:30:17;51.53;;;14.33;;
15946;SDS011;8072;52.554;7.966;2022-12-11T03:35:52;48.57;;;14.87;;
15946;SDS011;8072;52.554;7.966;2022-12-11T03:38:31;48.37;;;14.30;;
15946;SDS011;8072;52.554;7.966;2022-12-11T03:41:00;49.20;;;14.13;;
15946;SDS011;8072;52.554;7.966;2022-12-11T03:43:31;48.80;;;14.53;;
15946;SDS011;8072;52.554;7.966;2022-12-11T03:45:57;46.63;;;13.30;;
15946;SDS011;8072;52.554;7.966;2022-12-11T03:48:26;52.23;;;14.80;;
15946;SDS011;8072;52.554;7.966;2022-12-11T03:50:56;50.13;;;14.17;;
15946;SDS011;8072;52.554;7.966;2022-12-11T03:53:24;49.43;;;13.30;;
15946;SDS011;8072;52.554;7.966;2022-12-11T03:55:53;36.47;;;13.13;;
15946;SDS011;8072;52.554;7.966;2022-12-11T03:58:22;37.47;;;12.53;;
15946;SDS011;8072;52.554;7.966;2022-12-11T04:00:48;41.23;;;13.47;;
15946;SDS011;8072;52.554;7.966;2022-12-11T04:03:14;39.67;;;12.73;;
15946;SDS011;8072;52.554;7.966;2022-12-11T04:05:46;42.77;;;12.13;;
15946;SDS011;8072;52.554;7.966;2022-12-11T04:08:14;38.60;;;12.70;;
15946;SDS011;8072;52.554;7.966;2022-12-11T04:10:41;41.27;;;13.00;;
15946;SDS011;8072;52.554;7.966;2022-12-11T04:13:07;32.97;;;12.33;;
15946;SDS011;8072;52.554;7.966;2022-12-11T04:15:34;36.10;;;12.20;;
15946;SDS011;8072;52.554;7.966;2022-12-11T04:18:01;37.70;;;12.50;;
15946;SDS011;8072;52.554;7.966;2022-12-11T04:20:45;37.67;;;12.37;;
15946;SDS011;8072;52.554;7.966;2022-12-11T04:23:30;40.73;;;12.23;;
15946;SDS011;8072;52.554;7.966;2022-12-11T04:26:15;37.10;;;12.03;;
15946;SDS011;8072;52.554;7.966;2022-12-11T04:28:45;37.93;;;12.93;;
15946;SDS011;8072;52.554;7.966;2022-12-11T04:31:17;35.63;;;12.03;;
15946;SDS011;8072;52.554;7.966;2022-12-11T04:33:44;39.87;;;12.87;;
15946;SDS011;8072;52.554;7.966;2022-12-11T04:36:10;40.00;;;13.27;;
15946;SDS011;8072;52.554;7.966;2022-12-11T04:38:37;32.03;;;11.43;;
15946;SDS011;8072;52.554;7.966;2022-12-11T04:41:07;37.67;;;12.93;;
15946;SDS011;8072;52.554;7.966;2022-12-11T04:43:35;35.07;;;11.40;;
15946;SDS011;8072;52.554;7.966;2022-12-11T04:46:12;32.77;;;11.93;;
15946;SDS011;8072;52.554;7.966;2022-12-11T04:48:40;34.73;;;12.17;;
15946;SDS011;8072;52.554;7.966;2022-12-11T04:51:07;34.33;;;12.73;;
15946;SDS011;8072;52.554;7.966;2022-12-11T04:53:33;30.97;;;11.60;;
15946;SDS011;8072;52.554;7.966;2022-12-11T04:56:00;39.87;;;12.53;;
15946;SDS011;8072;52.554;7.966;2022-12-11T04:58:29;31.13;;;10.73;;
15946;SDS011;8072;52.554;7.966;2022-12-11T05:00:55;28.10;;;10.33;;
15946;SDS011;8072;52.554;7.966;2022-12-11T05:03:20;27.87;;;10.80;;
15946;SDS011;8072;52.554;7.966;2022-12-11T05:05:47;30.20;;;11.00;;
15946;SDS011;8072;52.554;7.966;2022-12-11T05:08:15;25.47;;;10.10;;
15946;SDS011;8072;52.554;7.966;2022-12-11T05:13:27;27.63;;;10.83;;
15946;SDS011;8072;52.554;7.966;2022-12-11T05:15:58;25.97;;;10.37;;
15946;SDS011;8072;52.554;7.966;2022-12-11T05:18:33;29.37;;;10.67;;
15946;SDS011;8072;52.554;7.966;2022-12-11T05:21:04;26.30;;;10.03;;
15946;SDS011;8072;52.554;7.966;2022-12-11T05:23:33;25.50;;;10.23;;
15946;SDS011;8072;52.554;7.966;2022-12-11T05:26:00;24.57;;;10.33;;
15946;SDS011;8072;52.554;7.966;2022-12-11T05:28:29;30.73;;;10.13;;
15946;SDS011;8072;52.554;7.966;2022-12-11T05:30:57;27.03;;;10.13;;
15946;SDS011;8072;52.554;7.966;2022-12-11T05:33:25;30.93;;;10.47;;
15946;SDS011;8072;52.554;7.966;2022-12-11T05:35:51;31.63;;;9.80;;
15946;SDS011;8072;52.554;7.966;2022-12-11T05:38:17;24.23;;;10.03;;
15946;SDS011;8072;52.554;7.966;2022-12-11T05:40:45;30.37;;;10.63;;
15946;SDS011;8072;52.554;7.966;2022-12-11T05:43:20;23.03;;;9.43;;
15946;SDS011;8072;52.554;7.966;2022-12-11T05:45:46;25.70;;;10.20;;
15946;SDS011;8072;52.554;7.966;2022-12-11T05:48:12;27.03;;;10.60;;
15946;SDS011;8072;52.554;7.966;2022-12-11T05:50:38;26.43;;;9.90;;
15946;SDS011;8072;52.554;7.966;2022-12-11T05:53:03;28.30;;;10.37;;
15946;SDS011;8072;52.554;7.966;2022-12-11T05:55:32;24.03;;;9.67;;
15946;SDS011;8072;52.554;7.966;2022-12-11T05:57:59;23.97;;;10.63;;
15946;SDS011;8072;52.554;7.966;2022-12-11T06:00:24;28.03;;;9.63;;
15946;SDS011;8072;52.554;7.966;2022-12-11T06:02:50;30.13;;;10.90;;
15946;SDS011;8072;52.554;7.966;2022-12-11T06:05:16;28.77;;;9.97;;
15946;SDS011;8072;52.554;7.966;2022-12-11T06:07:42;23.77;;;10.17;;
15946;SDS011;8072;52.554;7.966;2022-12-11T06:10:07;26.10;;;10.80;;
15946;SDS011;8072;52.554;7.966;2022-12-11T06:12:34;26.60;;;9.70;;
15946;SDS011;8072;52.554;7.966;2022-12-11T06:15:00;33.03;;;11.40;;
15946;SDS011;8072;52.554;7.966;2022-12-11T06:17:26;30.60;;;10.50;;
15946;SDS011;8072;52.554;7.966;2022-12-11T06:19:52;26.63;;;10.10;;
15946;SDS011;8072;52.554;7.966;2022-12-11T06:22:18;25.23;;;9.97;;
15946;SDS011;8072;52.554;7.966;2022-12-11T06:24:44;29.20;;;11.47;;
15946;SDS011;8072;52.554;7.966;2022-12-11T06:27:09;30.60;;;11.20;;
15946;SDS011;8072;52.554;7.966;2022-12-11T06:29:35;34.87;;;11.47;;
15946;SDS011;8072;52.554;7.966;2022-12-11T06:32:01;37.33;;;11.57;;
15946;SDS011;8072;52.554;7.966;2022-12-11T06:34:27;29.63;;;11.40;;
15946;SDS011;8072;52.554;7.966;2022-12-11T06:36:53;29.97;;;11.27;;
15946;SDS011;8072;52.554;7.966;2022-12-11T06:39:19;29.80;;;11.73;;
15946;SDS011;8072;52.554;7.966;2022-12-11T06:41:45;29.30;;;11.43;;
15946;SDS011;8072;52.554;7.966;2022-12-11T06:44:11;31.53;;;11.30;;
15946;SDS011;8072;52.554;7.966;2022-12-11T06:46:37;31.60;;;10.93;;
15946;SDS011;8072;52.554;7.966;2022-12-11T06:49:02;25.60;;;10.87;;
15946;SDS011;8072;52.554;7.966;2022-12-11T06:51:28;32.83;;;11.50;;
15946;SDS011;8072;52.554;7.966;2022-12-11T06:53:55;33.17;;;11.33;;
15946;SDS011;8072;52.554;7.966;2022-12-11T06:56:22;33.50;;;11.53;;
15946;SDS011;8072;52.554;7.966;2022-12-11T06:58:48;32.53;;;11.43;;
15946;SDS011;8072;52.554;7.966;2022-12-11T07:01:18;29.40;;;11.50;;
15946;SDS011;8072;52.554;7.966;2022-12-11T07:03:47;29.83;;;10.63;;
15946;SDS011;8072;52.554;7.966;2022-12-11T07:06:14;28.57;;;11.47;;
15946;SDS011;8072;52.554;7.966;2022-12-11T07:08:40;34.93;;;12.17;;
15946;SDS011;8072;52.554;7.966;2022-12-11T07:11:08;27.63;;;10.83;;
15946;SDS011;8072;52.554;7.966;2022-12-11T07:13:36;30.47;;;10.27;;
15946;SDS011;8072;52.554;7.966;2022-12-11T07:16:02;26.93;;;10.33;;
15946;SDS011;8072;52.554;7.966;2022-12-11T07:18:33;26.57;;;10.83;;
15946;SDS011;8072;52.554;7.966;2022-12-11T07:20:59;27.77;;;10.37;;
15946;SDS011;8072;52.554;7.966;2022-12-11T07:23:26;29.30;;;11.33;;
15946;SDS011;8072;52.554;7.966;2022-12-11T07:25:54;28.10;;;10.77;;
15946;SDS011;8072;52.554;7.966;2022-12-11T07:28:23;26.83;;;11.10;;
15946;SDS011;8072;52.554;7.966;2022-12-11T07:30:50;26.30;;;9.60;;
15946;SDS011;8072;52.554;7.966;2022-12-11T07:33:15;23.73;;;9.73;;
15946;SDS011;8072;52.554;7.966;2022-12-11T07:35:41;29.60;;;11.23;;
15946;SDS011;8072;52.554;7.966;2022-12-11T07:38:07;28.53;;;10.90;;
15946;SDS011;8072;52.554;7.966;2022-12-11T07:40:33;31.83;;;11.63;;
15946;SDS011;8072;52.554;7.966;2022-12-11T07:42:59;28.77;;;10.43;;
15946;SDS011;8072;52.554;7.966;2022-12-11T07:45:24;27.70;;;11.20;;
15946;SDS011;8072;52.554;7.966;2022-12-11T07:47:50;27.13;;;10.03;;
15946;SDS011;8072;52.554;7.966;2022-12-11T07:50:18;25.73;;;10.00;;
15946;SDS011;8072;52.554;7.966;2022-12-11T07:52:44;26.20;;;10.23;;
15946;SDS011;8072;52.554;7.966;2022-12-11T07:55:10;28.37;;;10.37;;
15946;SDS011;8072;52.554;7.966;2022-12-11T07:57:36;28.60;;;10.40;;
15946;SDS011;8072;52.554;7.966;2022-12-11T08:00:02;22.53;;;10.00;;
15946;SDS011;8072;52.554;7.966;2022-12-11T08:02:30;28.23;;;11.23;;
15946;SDS011;8072;52.554;7.966;2022-12-11T08:04:56;33.20;;;11.10;;
15946;SDS011;8072;52.554;7.966;2022-12-11T08:07:21;33.00;;;9.97;;
15946;SDS011;8072;52.554;7.966;2022-12-11T08:09:47;30.37;;;10.53;;
15946;SDS011;8072;52.554;7.966;2022-12-11T08:12:13;30.23;;;11.37;;
15946;SDS011;8072;52.554;7.966;2022-12-11T08:14:39;30.23;;;10.63;;
15946;SDS011;8072;52.554;7.966;2022-12-11T08:17:07;25.73;;;11.07;;
15946;SDS011;8072;52.554;7.966;2022-12-11T08:19:32;32.60;;;10.87;;
15946;SDS011;8072;52.554;7.966;2022-12-11T08:21:58;30.13;;;10.87;;
15946;SDS011;8072;52.554;7.966;2022-12-11T08:24:24;27.30;;;10.23;;
15946;SDS011;8072;52.554;7.966;2022-12-11T08:26:50;29.57;;;10.40;;
15946;SDS011;8072;52.554;7.966;2022-12-11T08:29:15;30.70;;;11.23;;
15946;SDS011;8072;52.554;7.966;2022-12-11T08:31:41;20.90;;;9.10;;
15946;SDS011;8072;52.554;7.966;2022-12-11T08:34:07;27.17;;;11.23;;
15946;SDS011;8072;52.554;7.966;2022-12-11T08:36:33;26.37;;;10.23;;
15946;SDS011;8072;52.554;7.966;2022-12-11T08:38:59;29.87;;;10.87;;
15946;SDS011;8072;52.554;7.966;2022-12-11T08:41:27;25.80;;;10.20;;
15946;SDS011;8072;52.554;7.966;2022-12-11T08:43:56;27.83;;;11.20;;
15946;SDS011;8072;52.554;7.966;2022-12-11T08:46:26;25.97;;;10.30;;
15946;SDS011;8072;52.554;7.966;2022-12-11T08:48:54;26.77;;;10.73;;
15946;SDS011;8072;52.554;7.966;2022-12-11T08:51:21;27.03;;;10.07;;
15946;SDS011;8072;52.554;7.966;2022-12-11T08:53:48;26.53;;;9.80;;
15946;SDS011;8072;52.554;7.966;2022-12-11T08:56:17;27.03;;;10.70;;
15946;SDS011;8072;52.554;7.966;2022-12-11T08:58:46;26.87;;;11.00;;
15946;SDS011;8072;52.554;7.966;2022-12-11T09:03:39;24.43;;;10.53;;
15946;SDS011;8072;52.554;7.966;2022-12-11T09:06:06;25.40;;;10.57;;
15946;SDS011;8072;52.554;7.966;2022-12-11T09:08:33;26.50;;;10.73;;
15946;SDS011;8072;52.554;7.966;2022-12-11T09:11:07;25.87;;;10.73;;
15946;SDS011;8072;52.554;7.966;2022-12-11T09:13:35;25.23;;;9.67;;
15946;SDS011;8072;52.554;7.966;2022-12-11T09:16:05;22.33;;;9.77;;
15946;SDS011;8072;52.554;7.966;2022-12-11T09:18:33;23.80;;;10.07;;
15946;SDS011;8072;52.554;7.966;2022-12-11T09:21:00;23.57;;;9.27;;
15946;SDS011;8072;52.554;7.966;2022-12-11T09:23:28;29.97;;;10.33;;
15946;SDS011;8072;52.554;7.966;2022-12-11T09:25:54;27.23;;;10.20;;
15946;SDS011;8072;52.554;7.966;2022-12-11T09:28:20;25.37;;;9.23;;
15946;SDS011;8072;52.554;7.966;2022-12-11T09:30:46;22.80;;;9.30;;
15946;SDS011;8072;52.554;7.966;2022-12-11T09:33:11;24.33;;;9.63;;
15946;SDS011;8072;52.554;7.966;2022-12-11T09:35:37;25.93;;;10.07;;
15946;SDS011;8072;52.554;7.966;2022-12-11T09:38:03;28.07;;;9.37;;
15946;SDS011;8072;52.554;7.966;2022-12-11T09:40:30;22.53;;;8.63;;
15946;SDS011;8072;52.554;7.966;2022-12-11T09:43:02;25.80;;;10.07;;
15946;SDS011;8072;52.554;7.966;2022-12-11T09:45:34;21.00;;;9.40;;
15946;SDS011;8072;52.554;7.966;2022-12-11T09:47:59;26.30;;;9.57;;
15946;SDS011;8072;52.554;7.966;2022-12-11T09:50:30;21.70;;;8.80;;
15946;SDS011;8072;52.554;7.966;2022-12-11T09:55:28;53.63;;;24.13;;
15946;SDS011;8072;52.554;7.966;2022-12-11T10:11:46;23.50;;;9.03;;
15946;SDS011;8072;52.554;7.966;2022-12-11T10:17:21;28.13;;;10.60;;
15946;SDS011;8072;52.554;7.966;2022-12-11T10:20:01;24.73;;;9.17;;
15946;SDS011;8072;52.554;7.966;2022-12-11T10:22:41;25.43;;;9.33;;
15946;SDS011;8072;52.554;7.966;2022-12-11T10:25:13;21.73;;;9.30;;
15946;SDS011;8072;52.554;7.966;2022-12-11T10:28:13;19.73;;;8.90;;
15946;SDS011;8072;52.554;7.966;2022-12-11T10:33:20;15.90;;;7.50;;
15946;SDS011;8072;52.554;7.966;2022-12-11T10:36:12;18.27;;;8.43;;
15946;SDS011;8072;52.554;7.966;2022-12-11T10:38:43;19.43;;;8.00;;
15946;SDS011;8072;52.554;7.966;2022-12-11T10:41:14;20.73;;;7.57;;
15946;SDS011;8072;52.554;7.966;2022-12-11T10:43:43;22.27;;;9.17;;
15946;SDS011;8072;52.554;7.966;2022-12-11T10:46:24;18.07;;;8.27;;
15946;SDS011;8072;52.554;7.966;2022-12-11T10:51:23;24.20;;;9.13;;
15946;SDS011;8072;52.554;7.966;2022-12-11T10:54:17;23.00;;;8.93;;
15946;SDS011;8072;52.554;7.966;2022-12-11T10:56:54;21.87;;;8.83;;
15946;SDS011;8072;52.554;7.966;2022-12-11T11:00:06;22.60;;;9.40;;
15946;SDS011;8072;52.554;7.966;2022-12-11T11:02:14;22.23;;;8.33;;
15946;SDS011;8072;52.554;7.966;2022-12-11T11:04:45;21.43;;;8.93;;
15946;SDS011;8072;52.554;7.966;2022-12-11T11:09:37;19.73;;;8.37;;
15946;SDS011;8072;52.554;7.966;2022-12-11T11:12:04;21.37;;;8.30;;
15946;SDS011;8072;52.554;7.966;2022-12-11T11:14:46;18.30;;;8.10;;
15946;SDS011;8072;52.554;7.966;2022-12-11T11:17:22;20.73;;;8.77;;
15946;SDS011;8072;52.554;7.966;2022-12-11T11:19:48;23.97;;;9.07;;
15946;SDS011;8072;52.554;7.966;2022-12-11T11:22:15;23.20;;;8.40;;
15946;SDS011;8072;52.554;7.966;2022-12-11T11:24:44;18.77;;;8.97;;
15946;SDS011;8072;52.554;7.966;2022-12-11T11:27:56;20.93;;;7.87;;
15946;SDS011;8072;52.554;7.966;2022-12-11T11:30:03;25.77;;;9.73;;
15946;SDS011;8072;52.554;7.966;2022-12-11T11:32:44;18.53;;;8.17;;
15946;SDS011;8072;52.554;7.966;2022-12-11T11:37:37;22.83;;;8.73;;
15946;SDS011;8072;52.554;7.966;2022-12-11T11:40:21;23.57;;;9.70;;
15946;SDS011;8072;52.554;7.966;2022-12-11T11:45:35;18.43;;;8.27;;
15946;SDS011;8072;52.554;7.966;2022-12-11T11:48:24;21.10;;;9.40;;
15946;SDS011;8072;52.554;7.966;2022-12-11T11:51:42;17.47;;;7.70;;
15946;SDS011;8072;52.554;7.966;2022-12-11T11:56:57;17.10;;;7.87;;
15946;SDS011;8072;52.554;7.966;2022-12-11T11:59:42;24.63;;;9.33;;
15946;SDS011;8072;52.554;7.966;2022-12-11T12:02:16;23.43;;;9.43;;
15946;SDS011;8072;52.554;7.966;2022-12-11T12:04:43;21.00;;;9.23;;
15946;SDS011;8072;52.554;7.966;2022-12-11T12:07:22;19.40;;;7.70;;
15946;SDS011;8072;52.554;7.966;2022-12-11T12:17:54;22.50;;;9.10;;
15946;SDS011;8072;52.554;7.966;2022-12-11T12:28:37;20.47;;;8.23;;
15946;SDS011;8072;52.554;7.966;2022-12-11T12:47:38;17.57;;;8.87;;
15946;SDS011;8072;52.554;7.966;2022-12-11T12:50:13;18.93;;;8.37;;
15946;SDS011;8072;52.554;7.966;2022-12-11T12:52:42;21.03;;;8.37;;
15946;SDS011;8072;52.554;7.966;2022-12-11T12:58:05;25.60;;;10.37;;
15946;SDS011;8072;52.554;7.966;2022-12-11T13:00:39;19.40;;;9.10;;
15946;SDS011;8072;52.554;7.966;2022-12-11T13:03:13;18.67;;;8.53;;
15946;SDS011;8072;52.554;7.966;2022-12-11T13:05:45;25.53;;;9.00;;
15946;SDS011;8072;52.554;7.966;2022-12-11T13:08:25;22.10;;;8.53;;
15946;SDS011;8072;52.554;7.966;2022-12-11T13:10:59;22.83;;;9.13;;
15946;SDS011;8072;52.554;7.966;2022-12-11T13:13:40;20.13;;;8.37;;
15946;SDS011;8072;52.554;7.966;2022-12-11T13:16:20;20.43;;;8.57;;
15946;SDS011;8072;52.554;7.966;2022-12-11T13:18:49;21.40;;;9.80;;
15946;SDS011;8072;52.554;7.966;2022-12-11T13:21:25;19.87;;;9.00;;
15946;SDS011;8072;52.554;7.966;2022-12-11T13:26:40;23.00;;;9.03;;
15946;SDS011;8072;52.554;7.966;2022-12-11T13:34:34;20.70;;;8.83;;
15946;SDS011;8072;52.554;7.966;2022-12-11T13:37:03;21.67;;;8.50;;
15946;SDS011;8072;52.554;7.966;2022-12-11T13:39:33;16.80;;;7.83;;
15946;SDS011;8072;52.554;7.966;2022-12-11T13:42:03;26.73;;;9.40;;
15946;SDS011;8072;52.554;7.966;2022-12-11T13:44:38;18.87;;;8.20;;
15946;SDS011;8072;52.554;7.966;2022-12-11T13:47:09;16.40;;;7.53;;
15946;SDS011;8072;52.554;7.966;2022-12-11T13:49:39;19.00;;;8.03;;
15946;SDS011;8072;52.554;7.966;2022-12-11T13:52:14;21.60;;;8.83;;
15946;SDS011;8072;52.554;7.966;2022-12-11T13:54:46;21.33;;;9.27;;
15946;SDS011;8072;52.554;7.966;2022-12-11T13:57:15;20.17;;;7.80;;
15946;SDS011;8072;52.554;7.966;2022-12-11T13:59:52;18.07;;;8.20;;
15946;SDS011;8072;52.554;7.966;2022-12-11T14:04:56;23.50;;;9.80;;
15946;SDS011;8072;52.554;7.966;2022-12-11T14:07:28;17.93;;;8.33;;
15946;SDS011;8072;52.554;7.966;2022-12-11T14:10:00;20.53;;;9.13;;
15946;SDS011;8072;52.554;7.966;2022-12-11T14:12:30;24.57;;;9.27;;
15946;SDS011;8072;52.554;7.966;2022-12-11T14:14:57;23.77;;;10.23;;
15946;SDS011;8072;52.554;7.966;2022-12-11T14:17:30;19.87;;;10.10;;
15946;SDS011;8072;52.554;7.966;2022-12-11T14:19:59;26.20;;;10.23;;
15946;SDS011;8072;52.554;7.966;2022-12-11T14:22:28;25.37;;;9.20;;
15946;SDS011;8072;52.554;7.966;2022-12-11T14:24:59;21.40;;;9.20;;
15946;SDS011;8072;52.554;7.966;2022-12-11T14:27:28;22.23;;;8.50;;
15946;SDS011;8072;52.554;7.966;2022-12-11T14:29:54;24.20;;;9.73;;
15946;SDS011;8072;52.554;7.966;2022-12-11T14:32:28;20.40;;;9.73;;
15946;SDS011;8072;52.554;7.966;2022-12-11T14:34:57;20.60;;;10.20;;
15946;SDS011;8072;52.554;7.966;2022-12-11T14:37:27;19.77;;;9.10;;
15946;SDS011;8072;52.554;7.966;2022-12-11T14:42:26;19.27;;;8.97;;
15946;SDS011;8072;52.554;7.966;2022-12-11T14:45:03;18.53;;;8.37;;
15946;SDS011;8072;52.554;7.966;2022-12-11T14:47:40;21.10;;;9.60;;
15946;SDS011;8072;52.554;7.966;2022-12-11T14:50:14;25.77;;;10.00;;
15946;SDS011;8072;52.554;7.966;2022-12-11T14:52:49;21.47;;;8.73;;
15946;SDS011;8072;52.554;7.966;2022-12-11T14:55:19;21.13;;;9.87;;
15946;SDS011;8072;52.554;7.966;2022-12-11T14:57:49;21.10;;;9.20;;
15946;SDS011;8072;52.554;7.966;2022-12-11T15:00:27;22.83;;;9.20;;
15946;SDS011;8072;52.554;7.966;2022-12-11T15:02:58;24.43;;;10.67;;
15946;SDS011;8072;52.554;7.966;2022-12-11T15:05:52;25.20;;;9.43;;
15946;SDS011;8072;52.554;7.966;2022-12-11T15:08:21;26.27;;;9.67;;
15946;SDS011;8072;52.554;7.966;2022-12-11T15:13:23;21.53;;;10.13;;
15946;SDS011;8072;52.554;7.966;2022-12-11T15:15:49;22.93;;;9.33;;
15946;SDS011;8072;52.554;7.966;2022-12-11T15:18:19;24.13;;;11.07;;
15946;SDS011;8072;52.554;7.966;2022-12-11T15:21:03;22.90;;;10.13;;
15946;SDS011;8072;52.554;7.966;2022-12-11T15:23:36;28.37;;;10.20;;
15946;SDS011;8072;52.554;7.966;2022-12-11T15:26:16;24.90;;;10.20;;
15946;SDS011;8072;52.554;7.966;2022-12-11T15:28:43;47.73;;;15.70;;
15946;SDS011;8072;52.554;7.966;2022-12-11T15:31:23;50.60;;;17.03;;
15946;SDS011;8072;52.554;7.966;2022-12-11T15:33:53;41.50;;;14.80;;
15946;SDS011;8072;52.554;7.966;2022-12-11T15:36:35;33.37;;;12.70;;
15946;SDS011;8072;52.554;7.966;2022-12-11T15:39:02;29.77;;;11.93;;
15946;SDS011;8072;52.554;7.966;2022-12-11T15:41:32;24.33;;;10.43;;
15946;SDS011;8072;52.554;7.966;2022-12-11T15:43:59;25.20;;;10.30;;
15946;SDS011;8072;52.554;7.966;2022-12-11T15:46:27;19.07;;;9.43;;
15946;SDS011;8072;52.554;7.966;2022-12-11T15:48:54;22.43;;;10.63;;
15946;SDS011;8072;52.554;7.966;2022-12-11T15:51:21;25.63;;;11.20;;
15946;SDS011;8072;52.554;7.966;2022-12-11T15:53:48;22.40;;;11.37;;
15946;SDS011;8072;52.554;7.966;2022-12-11T15:56:14;26.50;;;11.10;;
15946;SDS011;8072;52.554;7.966;2022-12-11T15:58:42;21.87;;;11.13;;
15946;SDS011;8072;52.554;7.966;2022-12-11T16:01:09;23.73;;;10.70;;
15946;SDS011;8072;52.554;7.966;2022-12-11T16:03:34;21.97;;;10.97;;
15946;SDS011;8072;52.554;7.966;2022-12-11T16:06:00;22.57;;;11.27;;
15946;SDS011;8072;52.554;7.966;2022-12-11T16:08:26;23.67;;;11.03;;
15946;SDS011;8072;52.554;7.966;2022-12-11T16:10:53;30.67;;;12.30;;
15946;SDS011;8072;52.554;7.966;2022-12-11T16:13:19;30.27;;;12.80;;
15946;SDS011;8072;52.554;7.966;2022-12-11T16:15:46;27.70;;;11.47;;
15946;SDS011;8072;52.554;7.966;2022-12-11T16:18:17;26.53;;;11.27;;
15946;SDS011;8072;52.554;7.966;2022-12-11T16:20:44;25.40;;;11.77;;
15946;SDS011;8072;52.554;7.966;2022-12-11T16:23:11;27.03;;;11.03;;
15946;SDS011;8072;52.554;7.966;2022-12-11T16:25:39;25.97;;;11.67;;
15946;SDS011;8072;52.554;7.966;2022-12-11T16:28:06;26.53;;;12.17;;
15946;SDS011;8072;52.554;7.966;2022-12-11T16:30:33;27.77;;;12.17;;
15946;SDS011;8072;52.554;7.966;2022-12-11T16:33:00;22.00;;;10.23;;
15946;SDS011;8072;52.554;7.966;2022-12-11T16:35:26;28.20;;;11.57;;
15946;SDS011;8072;52.554;7.966;2022-12-11T16:37:53;27.33;;;12.67;;
15946;SDS011;8072;52.554;7.966;2022-12-11T16:40:20;28.07;;;12.23;;
15946;SDS011;8072;52.554;7.966;2022-12-11T16:42:46;27.57;;;11.13;;
15946;SDS011;8072;52.554;7.966;2022-12-11T16:45:14;30.50;;;11.87;;
15946;SDS011;8072;52.554;7.966;2022-12-11T16:47:47;28.17;;;12.23;;
15946;SDS011;8072;52.554;7.966;2022-12-11T16:50:14;28.57;;;12.43;;